< < Back
Terminal Aerodrome Forecast


Current Version              Previous Versions:   1  2  3  4  5  6  7  8  9  

Terminal Aerodrome Forecast

385
FTUS42 KTAE 011800 AAA
TAFTLH
TAF AMD
KTLH 011844Z 0119/0218 06008KT P6SM OVC009
      TEMPO 0119/0123 SCT009 OVC012
     FM020600 06003KT 1/2SM FG OVC004
     FM021600 09003KT 5SM BR OVC007=



Latest METAR

993
SAUS80 KWBC 020100 RRB
MTRTLH
METAR KTLH 020053Z 01003KT 2 1/2SM BR OVC009 16/14 A3035 RMK AO2 TWR VIS
3 CIG 005V011 SLP277 T01560144 $


USA.gov is the U.S. government's official web portal to all federal, state and local government web resources and services.